sensor_id;sensor_type;location;lat;lon;timestamp;P1;durP1;ratioP1;P2;durP2;ratioP2
49412;SDS011;35493;50.276;9.372;2023-07-09T00:02:20;8.38;;;5.85;;
49412;SDS011;35493;50.276;9.372;2023-07-09T00:04:48;11.80;;;7.20;;
49412;SDS011;35493;50.276;9.372;2023-07-09T00:07:17;10.63;;;6.97;;
49412;SDS011;35493;50.276;9.372;2023-07-09T00:09:47;9.90;;;6.72;;
49412;SDS011;35493;50.276;9.372;2023-07-09T00:12:15;9.98;;;6.68;;
49412;SDS011;35493;50.276;9.372;2023-07-09T00:14:44;10.50;;;7.13;;
49412;SDS011;35493;50.276;9.372;2023-07-09T00:17:18;10.35;;;6.40;;
49412;SDS011;35493;50.276;9.372;2023-07-09T00:19:48;11.13;;;7.45;;
49412;SDS011;35493;50.276;9.372;2023-07-09T00:22:17;11.27;;;6.90;;
49412;SDS011;35493;50.276;9.372;2023-07-09T00:24:46;11.40;;;6.97;;
49412;SDS011;35493;50.276;9.372;2023-07-09T00:27:16;10.73;;;6.72;;
49412;SDS011;35493;50.276;9.372;2023-07-09T00:29:45;11.07;;;6.85;;
49412;SDS011;35493;50.276;9.372;2023-07-09T00:32:13;9.50;;;6.82;;
49412;SDS011;35493;50.276;9.372;2023-07-09T00:34:42;9.13;;;6.60;;
49412;SDS011;35493;50.276;9.372;2023-07-09T00:37:14;10.10;;;7.13;;
49412;SDS011;35493;50.276;9.372;2023-07-09T00:39:42;9.57;;;6.95;;
49412;SDS011;35493;50.276;9.372;2023-07-09T00:42:13;10.18;;;7.18;;
49412;SDS011;35493;50.276;9.372;2023-07-09T00:44:44;10.05;;;7.03;;
49412;SDS011;35493;50.276;9.372;2023-07-09T00:47:14;9.27;;;6.13;;
49412;SDS011;35493;50.276;9.372;2023-07-09T00:49:48;8.73;;;6.80;;
49412;SDS011;35493;50.276;9.372;2023-07-09T00:54:58;9.70;;;6.65;;
49412;SDS011;35493;50.276;9.372;2023-07-09T00:57:32;9.50;;;6.07;;
49412;SDS011;35493;50.276;9.372;2023-07-09T01:00:05;9.80;;;6.28;;
49412;SDS011;35493;50.276;9.372;2023-07-09T01:02:37;10.73;;;7.35;;
49412;SDS011;35493;50.276;9.372;2023-07-09T01:05:10;9.77;;;6.22;;
49412;SDS011;35493;50.276;9.372;2023-07-09T01:07:39;8.98;;;6.32;;
49412;SDS011;35493;50.276;9.372;2023-07-09T01:10:07;11.50;;;6.93;;
49412;SDS011;35493;50.276;9.372;2023-07-09T01:12:36;9.13;;;6.65;;
49412;SDS011;35493;50.276;9.372;2023-07-09T01:15:03;11.80;;;6.55;;
49412;SDS011;35493;50.276;9.372;2023-07-09T01:20:01;9.93;;;6.53;;
49412;SDS011;35493;50.276;9.372;2023-07-09T01:22:30;11.55;;;7.65;;
49412;SDS011;35493;50.276;9.372;2023-07-09T01:24:58;9.50;;;7.07;;
49412;SDS011;35493;50.276;9.372;2023-07-09T01:29:56;9.80;;;6.35;;
49412;SDS011;35493;50.276;9.372;2023-07-09T01:32:24;9.82;;;6.72;;
49412;SDS011;35493;50.276;9.372;2023-07-09T01:34:53;10.73;;;6.90;;
49412;SDS011;35493;50.276;9.372;2023-07-09T01:37:22;10.20;;;6.28;;
49412;SDS011;35493;50.276;9.372;2023-07-09T01:39:52;9.02;;;5.80;;
49412;SDS011;35493;50.276;9.372;2023-07-09T01:42:20;8.77;;;6.30;;
49412;SDS011;35493;50.276;9.372;2023-07-09T01:47:16;9.77;;;5.40;;
49412;SDS011;35493;50.276;9.372;2023-07-09T01:49:44;8.07;;;5.50;;
49412;SDS011;35493;50.276;9.372;2023-07-09T01:52:12;8.50;;;5.65;;
49412;SDS011;35493;50.276;9.372;2023-07-09T01:54:41;7.85;;;5.63;;
49412;SDS011;35493;50.276;9.372;2023-07-09T01:57:19;9.65;;;6.10;;
49412;SDS011;35493;50.276;9.372;2023-07-09T01:59:49;9.02;;;6.15;;
49412;SDS011;35493;50.276;9.372;2023-07-09T02:02:16;9.07;;;6.30;;
49412;SDS011;35493;50.276;9.372;2023-07-09T02:04:47;8.23;;;6.00;;
49412;SDS011;35493;50.276;9.372;2023-07-09T02:07:15;9.27;;;6.32;;
49412;SDS011;35493;50.276;9.372;2023-07-09T02:09:43;9.85;;;6.40;;
49412;SDS011;35493;50.276;9.372;2023-07-09T02:12:11;11.70;;;6.82;;
49412;SDS011;35493;50.276;9.372;2023-07-09T02:14:41;10.25;;;7.13;;
49412;SDS011;35493;50.276;9.372;2023-07-09T02:19:36;10.43;;;6.60;;
49412;SDS011;35493;50.276;9.372;2023-07-09T02:22:04;9.40;;;6.30;;
49412;SDS011;35493;50.276;9.372;2023-07-09T02:24:32;10.40;;;7.20;;
49412;SDS011;35493;50.276;9.372;2023-07-09T02:26:59;10.13;;;6.32;;
49412;SDS011;35493;50.276;9.372;2023-07-09T02:31:57;8.73;;;5.68;;
49412;SDS011;35493;50.276;9.372;2023-07-09T02:34:26;9.57;;;5.97;;
49412;SDS011;35493;50.276;9.372;2023-07-09T02:36:53;7.30;;;5.47;;
49412;SDS011;35493;50.276;9.372;2023-07-09T02:39:22;10.05;;;5.82;;
49412;SDS011;35493;50.276;9.372;2023-07-09T02:41:50;8.55;;;5.57;;
49412;SDS011;35493;50.276;9.372;2023-07-09T02:44:17;10.70;;;5.43;;
49412;SDS011;35493;50.276;9.372;2023-07-09T02:46:44;9.15;;;5.88;;
49412;SDS011;35493;50.276;9.372;2023-07-09T02:49:14;9.90;;;5.57;;
49412;SDS011;35493;50.276;9.372;2023-07-09T02:51:41;9.13;;;5.60;;
49412;SDS011;35493;50.276;9.372;2023-07-09T02:54:08;8.20;;;6.00;;
49412;SDS011;35493;50.276;9.372;2023-07-09T02:56:35;8.73;;;5.78;;
49412;SDS011;35493;50.276;9.372;2023-07-09T02:59:02;8.90;;;5.88;;
49412;SDS011;35493;50.276;9.372;2023-07-09T03:01:29;12.68;;;7.05;;
49412;SDS011;35493;50.276;9.372;2023-07-09T03:03:57;7.93;;;5.85;;
49412;SDS011;35493;50.276;9.372;2023-07-09T03:06:28;8.73;;;6.22;;
49412;SDS011;35493;50.276;9.372;2023-07-09T03:08:58;9.65;;;6.82;;
49412;SDS011;35493;50.276;9.372;2023-07-09T03:11:27;8.30;;;5.95;;
49412;SDS011;35493;50.276;9.372;2023-07-09T03:13:55;9.40;;;6.20;;
49412;SDS011;35493;50.276;9.372;2023-07-09T03:16:22;8.60;;;6.15;;
49412;SDS011;35493;50.276;9.372;2023-07-09T03:18:49;8.77;;;5.80;;
49412;SDS011;35493;50.276;9.372;2023-07-09T03:21:16;7.97;;;5.68;;
49412;SDS011;35493;50.276;9.372;2023-07-09T03:23:44;9.98;;;6.18;;
49412;SDS011;35493;50.276;9.372;2023-07-09T03:26:11;10.65;;;6.30;;
49412;SDS011;35493;50.276;9.372;2023-07-09T03:28:41;10.45;;;6.53;;
49412;SDS011;35493;50.276;9.372;2023-07-09T03:31:08;10.93;;;6.63;;
49412;SDS011;35493;50.276;9.372;2023-07-09T03:33:35;9.65;;;6.80;;
49412;SDS011;35493;50.276;9.372;2023-07-09T03:36:03;9.27;;;6.45;;
49412;SDS011;35493;50.276;9.372;2023-07-09T03:38:31;9.80;;;7.07;;
49412;SDS011;35493;50.276;9.372;2023-07-09T03:40:59;11.40;;;6.85;;
49412;SDS011;35493;50.276;9.372;2023-07-09T03:43:26;8.90;;;6.32;;
49412;SDS011;35493;50.276;9.372;2023-07-09T03:45:53;9.93;;;6.22;;
49412;SDS011;35493;50.276;9.372;2023-07-09T03:48:20;9.25;;;6.43;;
49412;SDS011;35493;50.276;9.372;2023-07-09T03:50:47;10.55;;;6.53;;
49412;SDS011;35493;50.276;9.372;2023-07-09T03:53:15;9.50;;;6.60;;
49412;SDS011;35493;50.276;9.372;2023-07-09T03:55:42;9.63;;;6.25;;
49412;SDS011;35493;50.276;9.372;2023-07-09T03:58:11;8.43;;;5.70;;
49412;SDS011;35493;50.276;9.372;2023-07-09T04:00:38;9.50;;;5.97;;
49412;SDS011;35493;50.276;9.372;2023-07-09T04:03:06;9.57;;;5.95;;
49412;SDS011;35493;50.276;9.372;2023-07-09T04:05:35;8.93;;;5.55;;
49412;SDS011;35493;50.276;9.372;2023-07-09T04:08:03;7.88;;;5.70;;
49412;SDS011;35493;50.276;9.372;2023-07-09T04:10:30;7.82;;;5.47;;
49412;SDS011;35493;50.276;9.372;2023-07-09T04:12:57;9.52;;;6.13;;
49412;SDS011;35493;50.276;9.372;2023-07-09T04:15:26;9.20;;;6.28;;
49412;SDS011;35493;50.276;9.372;2023-07-09T04:17:53;8.25;;;6.10;;
49412;SDS011;35493;50.276;9.372;2023-07-09T04:20:20;8.25;;;5.18;;
49412;SDS011;35493;50.276;9.372;2023-07-09T04:22:47;9.77;;;6.53;;
49412;SDS011;35493;50.276;9.372;2023-07-09T04:25:14;10.02;;;6.38;;
49412;SDS011;35493;50.276;9.372;2023-07-09T04:27:42;10.20;;;6.35;;
49412;SDS011;35493;50.276;9.372;2023-07-09T04:30:09;10.65;;;6.57;;
49412;SDS011;35493;50.276;9.372;2023-07-09T04:32:39;10.33;;;6.40;;
49412;SDS011;35493;50.276;9.372;2023-07-09T04:35:08;9.55;;;5.25;;
49412;SDS011;35493;50.276;9.372;2023-07-09T04:37:36;7.60;;;5.50;;
49412;SDS011;35493;50.276;9.372;2023-07-09T04:40:04;8.68;;;6.10;;
49412;SDS011;35493;50.276;9.372;2023-07-09T04:42:36;8.60;;;5.70;;
49412;SDS011;35493;50.276;9.372;2023-07-09T04:45:05;8.85;;;5.97;;
49412;SDS011;35493;50.276;9.372;2023-07-09T04:47:34;9.27;;;5.95;;
49412;SDS011;35493;50.276;9.372;2023-07-09T04:50:02;10.43;;;6.25;;
49412;SDS011;35493;50.276;9.372;2023-07-09T04:52:30;9.23;;;6.05;;
49412;SDS011;35493;50.276;9.372;2023-07-09T04:54:57;10.20;;;6.15;;
49412;SDS011;35493;50.276;9.372;2023-07-09T04:57:24;9.13;;;6.07;;
49412;SDS011;35493;50.276;9.372;2023-07-09T04:59:52;9.98;;;6.18;;
49412;SDS011;35493;50.276;9.372;2023-07-09T05:02:20;9.68;;;6.43;;
49412;SDS011;35493;50.276;9.372;2023-07-09T05:04:47;9.57;;;6.95;;
49412;SDS011;35493;50.276;9.372;2023-07-09T05:07:16;10.00;;;7.03;;
49412;SDS011;35493;50.276;9.372;2023-07-09T05:09:45;9.73;;;6.63;;
49412;SDS011;35493;50.276;9.372;2023-07-09T05:12:27;8.68;;;6.47;;
49412;SDS011;35493;50.276;9.372;2023-07-09T05:14:54;10.60;;;6.80;;
49412;SDS011;35493;50.276;9.372;2023-07-09T05:17:22;11.52;;;6.43;;
49412;SDS011;35493;50.276;9.372;2023-07-09T05:19:50;9.48;;;5.97;;
49412;SDS011;35493;50.276;9.372;2023-07-09T05:22:20;9.23;;;6.20;;
49412;SDS011;35493;50.276;9.372;2023-07-09T05:24:56;10.13;;;6.40;;
49412;SDS011;35493;50.276;9.372;2023-07-09T05:27:23;6.78;;;5.28;;
49412;SDS011;35493;50.276;9.372;2023-07-09T05:29:50;8.55;;;6.00;;
49412;SDS011;35493;50.276;9.372;2023-07-09T05:32:17;9.25;;;6.15;;
49412;SDS011;35493;50.276;9.372;2023-07-09T05:34:44;8.57;;;5.70;;
49412;SDS011;35493;50.276;9.372;2023-07-09T05:37:13;9.98;;;5.63;;
49412;SDS011;35493;50.276;9.372;2023-07-09T05:39:42;8.32;;;5.55;;
49412;SDS011;35493;50.276;9.372;2023-07-09T05:42:09;8.88;;;5.40;;
49412;SDS011;35493;50.276;9.372;2023-07-09T05:44:36;9.45;;;5.97;;
49412;SDS011;35493;50.276;9.372;2023-07-09T05:47:35;8.13;;;5.18;;
49412;SDS011;35493;50.276;9.372;2023-07-09T05:50:06;9.38;;;5.43;;
49412;SDS011;35493;50.276;9.372;2023-07-09T05:52:34;7.78;;;5.45;;
49412;SDS011;35493;50.276;9.372;2023-07-09T05:55:20;8.05;;;5.30;;
49412;SDS011;35493;50.276;9.372;2023-07-09T05:57:47;8.50;;;5.30;;
49412;SDS011;35493;50.276;9.372;2023-07-09T06:00:14;10.90;;;5.93;;
49412;SDS011;35493;50.276;9.372;2023-07-09T06:02:42;7.72;;;5.15;;
49412;SDS011;35493;50.276;9.372;2023-07-09T06:05:09;9.85;;;5.55;;
49412;SDS011;35493;50.276;9.372;2023-07-09T06:07:36;8.38;;;5.28;;
49412;SDS011;35493;50.276;9.372;2023-07-09T06:10:03;9.07;;;5.55;;
49412;SDS011;35493;50.276;9.372;2023-07-09T06:12:33;8.98;;;5.22;;
49412;SDS011;35493;50.276;9.372;2023-07-09T06:15:00;7.85;;;5.18;;
49412;SDS011;35493;50.276;9.372;2023-07-09T06:17:47;7.30;;;5.43;;
49412;SDS011;35493;50.276;9.372;2023-07-09T06:20:14;7.40;;;5.15;;
49412;SDS011;35493;50.276;9.372;2023-07-09T06:22:41;8.15;;;5.32;;
49412;SDS011;35493;50.276;9.372;2023-07-09T06:25:08;7.70;;;5.05;;
49412;SDS011;35493;50.276;9.372;2023-07-09T06:27:36;8.20;;;5.60;;
49412;SDS011;35493;50.276;9.372;2023-07-09T06:30:04;8.00;;;5.57;;
49412;SDS011;35493;50.276;9.372;2023-07-09T06:32:31;7.97;;;5.47;;
49412;SDS011;35493;50.276;9.372;2023-07-09T06:34:58;7.43;;;4.88;;
49412;SDS011;35493;50.276;9.372;2023-07-09T06:37:25;7.65;;;5.00;;
49412;SDS011;35493;50.276;9.372;2023-07-09T06:39:52;8.30;;;5.68;;
49412;SDS011;35493;50.276;9.372;2023-07-09T06:42:19;7.88;;;5.35;;
49412;SDS011;35493;50.276;9.372;2023-07-09T06:44:56;8.05;;;5.38;;
49412;SDS011;35493;50.276;9.372;2023-07-09T06:47:23;8.48;;;5.15;;
49412;SDS011;35493;50.276;9.372;2023-07-09T06:49:50;7.80;;;5.22;;
49412;SDS011;35493;50.276;9.372;2023-07-09T06:52:17;10.00;;;5.43;;
49412;SDS011;35493;50.276;9.372;2023-07-09T06:54:44;8.88;;;5.18;;
49412;SDS011;35493;50.276;9.372;2023-07-09T06:57:11;8.55;;;5.47;;
49412;SDS011;35493;50.276;9.372;2023-07-09T06:59:38;9.95;;;6.90;;
49412;SDS011;35493;50.276;9.372;2023-07-09T07:02:07;13.93;;;8.23;;
49412;SDS011;35493;50.276;9.372;2023-07-09T07:07:01;13.30;;;9.25;;
49412;SDS011;35493;50.276;9.372;2023-07-09T07:09:28;11.75;;;8.45;;
49412;SDS011;35493;50.276;9.372;2023-07-09T07:11:56;10.52;;;7.55;;
49412;SDS011;35493;50.276;9.372;2023-07-09T07:14:23;10.45;;;8.23;;
49412;SDS011;35493;50.276;9.372;2023-07-09T07:16:50;11.38;;;7.45;;
49412;SDS011;35493;50.276;9.372;2023-07-09T07:19:18;9.27;;;7.68;;
49412;SDS011;35493;50.276;9.372;2023-07-09T07:21:45;9.98;;;7.47;;
49412;SDS011;35493;50.276;9.372;2023-07-09T07:24:12;12.85;;;8.43;;
49412;SDS011;35493;50.276;9.372;2023-07-09T07:26:39;11.02;;;7.50;;
49412;SDS011;35493;50.276;9.372;2023-07-09T07:29:05;11.18;;;7.90;;
49412;SDS011;35493;50.276;9.372;2023-07-09T07:31:32;10.38;;;7.50;;
49412;SDS011;35493;50.276;9.372;2023-07-09T07:33:59;8.80;;;6.80;;
49412;SDS011;35493;50.276;9.372;2023-07-09T07:36:27;9.52;;;6.90;;
49412;SDS011;35493;50.276;9.372;2023-07-09T07:38:54;12.45;;;7.93;;
49412;SDS011;35493;50.276;9.372;2023-07-09T07:41:21;12.88;;;7.65;;
49412;SDS011;35493;50.276;9.372;2023-07-09T07:43:48;10.10;;;7.85;;
49412;SDS011;35493;50.276;9.372;2023-07-09T07:46:15;11.52;;;8.23;;
49412;SDS011;35493;50.276;9.372;2023-07-09T07:48:42;11.77;;;7.43;;
49412;SDS011;35493;50.276;9.372;2023-07-09T07:51:09;9.10;;;6.50;;
49412;SDS011;35493;50.276;9.372;2023-07-09T07:53:37;9.20;;;6.93;;
49412;SDS011;35493;50.276;9.372;2023-07-09T07:56:04;9.20;;;7.17;;
49412;SDS011;35493;50.276;9.372;2023-07-09T07:58:32;11.85;;;7.20;;
49412;SDS011;35493;50.276;9.372;2023-07-09T08:00:59;10.93;;;7.32;;
49412;SDS011;35493;50.276;9.372;2023-07-09T08:03:26;8.90;;;6.50;;
49412;SDS011;35493;50.276;9.372;2023-07-09T08:05:56;9.88;;;7.40;;
49412;SDS011;35493;50.276;9.372;2023-07-09T08:08:23;9.45;;;6.75;;
49412;SDS011;35493;50.276;9.372;2023-07-09T08:10:51;9.02;;;6.20;;
49412;SDS011;35493;50.276;9.372;2023-07-09T08:13:25;7.75;;;6.13;;
49412;SDS011;35493;50.276;9.372;2023-07-09T08:15:52;8.95;;;5.90;;
49412;SDS011;35493;50.276;9.372;2023-07-09T08:18:19;10.05;;;6.60;;
49412;SDS011;35493;50.276;9.372;2023-07-09T08:20:46;8.70;;;6.25;;
49412;SDS011;35493;50.276;9.372;2023-07-09T08:23:15;8.23;;;6.05;;
49412;SDS011;35493;50.276;9.372;2023-07-09T08:25:53;6.95;;;5.63;;
49412;SDS011;35493;50.276;9.372;2023-07-09T08:28:20;9.68;;;6.00;;
49412;SDS011;35493;50.276;9.372;2023-07-09T08:30:47;8.43;;;6.03;;
49412;SDS011;35493;50.276;9.372;2023-07-09T08:33:14;8.77;;;5.50;;
49412;SDS011;35493;50.276;9.372;2023-07-09T08:35:42;8.48;;;5.63;;
49412;SDS011;35493;50.276;9.372;2023-07-09T08:38:11;7.95;;;5.47;;
49412;SDS011;35493;50.276;9.372;2023-07-09T08:40:41;9.32;;;5.68;;
49412;SDS011;35493;50.276;9.372;2023-07-09T08:43:22;7.45;;;5.47;;
49412;SDS011;35493;50.276;9.372;2023-07-09T08:46:02;8.15;;;5.18;;
49412;SDS011;35493;50.276;9.372;2023-07-09T08:51:26;7.10;;;4.97;;
49412;SDS011;35493;50.276;9.372;2023-07-09T08:53:59;7.55;;;4.93;;
49412;SDS011;35493;50.276;9.372;2023-07-09T08:56:28;9.30;;;5.43;;
49412;SDS011;35493;50.276;9.372;2023-07-09T08:59:34;9.23;;;5.38;;
49412;SDS011;35493;50.276;9.372;2023-07-09T09:02:03;7.32;;;5.35;;
49412;SDS011;35493;50.276;9.372;2023-07-09T09:04:34;8.90;;;5.45;;
49412;SDS011;35493;50.276;9.372;2023-07-09T09:07:05;7.07;;;5.03;;
49412;SDS011;35493;50.276;9.372;2023-07-09T09:09:45;13.80;;;6.30;;
49412;SDS011;35493;50.276;9.372;2023-07-09T09:12:20;6.72;;;5.00;;
49412;SDS011;35493;50.276;9.372;2023-07-09T09:14:54;8.75;;;6.20;;
49412;SDS011;35493;50.276;9.372;2023-07-09T09:17:23;9.02;;;6.55;;
49412;SDS011;35493;50.276;9.372;2023-07-09T09:19:55;13.43;;;7.60;;
49412;SDS011;35493;50.276;9.372;2023-07-09T09:22:27;11.18;;;7.88;;
49412;SDS011;35493;50.276;9.372;2023-07-09T09:24:58;10.68;;;8.18;;
49412;SDS011;35493;50.276;9.372;2023-07-09T09:27:30;11.98;;;8.00;;
49412;SDS011;35493;50.276;9.372;2023-07-09T09:29:58;11.45;;;7.95;;
49412;SDS011;35493;50.276;9.372;2023-07-09T09:32:25;15.02;;;9.95;;
49412;SDS011;35493;50.276;9.372;2023-07-09T09:34:54;16.33;;;10.50;;
49412;SDS011;35493;50.276;9.372;2023-07-09T09:37:24;13.50;;;10.45;;
49412;SDS011;35493;50.276;9.372;2023-07-09T09:40:01;17.40;;;15.10;;
49412;SDS011;35493;50.276;9.372;2023-07-09T09:42:28;20.23;;;17.70;;
49412;SDS011;35493;50.276;9.372;2023-07-09T09:44:55;17.40;;;15.43;;
49412;SDS011;35493;50.276;9.372;2023-07-09T09:47:31;23.67;;;21.05;;
49412;SDS011;35493;50.276;9.372;2023-07-09T09:49:58;21.95;;;19.75;;
49412;SDS011;35493;50.276;9.372;2023-07-09T09:52:26;19.05;;;16.05;;
49412;SDS011;35493;50.276;9.372;2023-07-09T09:55:01;13.30;;;11.05;;
49412;SDS011;35493;50.276;9.372;2023-07-09T09:57:35;21.45;;;17.52;;
49412;SDS011;35493;50.276;9.372;2023-07-09T10:00:03;12.65;;;11.02;;
49412;SDS011;35493;50.276;9.372;2023-07-09T10:02:37;14.98;;;11.73;;
49412;SDS011;35493;50.276;9.372;2023-07-09T10:05:10;11.68;;;9.85;;
49412;SDS011;35493;50.276;9.372;2023-07-09T10:07:39;13.10;;;10.90;;
49412;SDS011;35493;50.276;9.372;2023-07-09T10:10:11;16.20;;;10.80;;
49412;SDS011;35493;50.276;9.372;2023-07-09T10:12:42;11.75;;;9.52;;
49412;SDS011;35493;50.276;9.372;2023-07-09T10:15:17;10.32;;;8.25;;
49412;SDS011;35493;50.276;9.372;2023-07-09T10:17:56;10.63;;;6.97;;
49412;SDS011;35493;50.276;9.372;2023-07-09T10:20:30;12.75;;;9.70;;
49412;SDS011;35493;50.276;9.372;2023-07-09T10:23:02;12.13;;;9.73;;
49412;SDS011;35493;50.276;9.372;2023-07-09T10:25:40;12.52;;;8.75;;
49412;SDS011;35493;50.276;9.372;2023-07-09T10:28:19;15.55;;;9.68;;
49412;SDS011;35493;50.276;9.372;2023-07-09T10:31:00;11.48;;;8.57;;
49412;SDS011;35493;50.276;9.372;2023-07-09T10:33:37;12.13;;;8.35;;
49412;SDS011;35493;50.276;9.372;2023-07-09T10:36:18;10.43;;;7.25;;
49412;SDS011;35493;50.276;9.372;2023-07-09T10:38:52;8.65;;;7.13;;
49412;SDS011;35493;50.276;9.372;2023-07-09T10:41:25;8.88;;;6.90;;
49412;SDS011;35493;50.276;9.372;2023-07-09T10:43:53;10.40;;;6.40;;
49412;SDS011;35493;50.276;9.372;2023-07-09T10:46:25;8.77;;;6.05;;
49412;SDS011;35493;50.276;9.372;2023-07-09T10:48:55;8.55;;;6.38;;
49412;SDS011;35493;50.276;9.372;2023-07-09T10:51:26;6.97;;;5.25;;
49412;SDS011;35493;50.276;9.372;2023-07-09T10:53:56;9.90;;;5.90;;
49412;SDS011;35493;50.276;9.372;2023-07-09T10:56:26;9.00;;;6.35;;
49412;SDS011;35493;50.276;9.372;2023-07-09T10:58:57;8.95;;;6.63;;
49412;SDS011;35493;50.276;9.372;2023-07-09T11:01:32;10.50;;;7.22;;
49412;SDS011;35493;50.276;9.372;2023-07-09T11:04:04;10.27;;;6.38;;
49412;SDS011;35493;50.276;9.372;2023-07-09T11:06:36;8.25;;;5.90;;
49412;SDS011;35493;50.276;9.372;2023-07-09T11:09:07;7.85;;;5.75;;
49412;SDS011;35493;50.276;9.372;2023-07-09T11:11:42;7.45;;;5.63;;
49412;SDS011;35493;50.276;9.372;2023-07-09T11:14:22;9.85;;;5.72;;
49412;SDS011;35493;50.276;9.372;2023-07-09T11:16:53;7.63;;;5.55;;
49412;SDS011;35493;50.276;9.372;2023-07-09T11:19:26;8.05;;;6.03;;
49412;SDS011;35493;50.276;9.372;2023-07-09T11:21:57;7.43;;;5.90;;
49412;SDS011;35493;50.276;9.372;2023-07-09T11:24:30;7.72;;;5.97;;
49412;SDS011;35493;50.276;9.372;2023-07-09T11:26:59;8.73;;;6.38;;
49412;SDS011;35493;50.276;9.372;2023-07-09T11:29:26;8.15;;;5.90;;
49412;SDS011;35493;50.276;9.372;2023-07-09T11:31:54;8.13;;;5.50;;
49412;SDS011;35493;50.276;9.372;2023-07-09T11:34:27;8.02;;;5.97;;
49412;SDS011;35493;50.276;9.372;2023-07-09T11:36:56;8.00;;;5.68;;
49412;SDS011;35493;50.276;9.372;2023-07-09T11:39:27;8.00;;;5.78;;
49412;SDS011;35493;50.276;9.372;2023-07-09T11:42:00;8.35;;;5.95;;
49412;SDS011;35493;50.276;9.372;2023-07-09T11:44:28;7.53;;;6.00;;
49412;SDS011;35493;50.276;9.372;2023-07-09T11:49:42;8.60;;;6.15;;
49412;SDS011;35493;50.276;9.372;2023-07-09T11:52:17;8.90;;;5.90;;
49412;SDS011;35493;50.276;9.372;2023-07-09T11:54:48;8.93;;;5.97;;
49412;SDS011;35493;50.276;9.372;2023-07-09T11:57:16;7.90;;;5.68;;
49412;SDS011;35493;50.276;9.372;2023-07-09T11:59:44;7.05;;;5.38;;
49412;SDS011;35493;50.276;9.372;2023-07-09T12:02:13;8.55;;;5.10;;
49412;SDS011;35493;50.276;9.372;2023-07-09T12:04:47;8.57;;;5.38;;
49412;SDS011;35493;50.276;9.372;2023-07-09T12:07:20;7.82;;;5.85;;
49412;SDS011;35493;50.276;9.372;2023-07-09T12:09:53;8.05;;;5.63;;
49412;SDS011;35493;50.276;9.372;2023-07-09T12:12:27;7.80;;;5.22;;
49412;SDS011;35493;50.276;9.372;2023-07-09T12:15:03;8.57;;;6.07;;
49412;SDS011;35493;50.276;9.372;2023-07-09T12:17:34;8.73;;;5.40;;
49412;SDS011;35493;50.276;9.372;2023-07-09T12:20:03;7.22;;;5.20;;
49412;SDS011;35493;50.276;9.372;2023-07-09T12:22:31;8.82;;;5.07;;
49412;SDS011;35493;50.276;9.372;2023-07-09T12:24:58;7.30;;;5.40;;
49412;SDS011;35493;50.276;9.372;2023-07-09T12:27:26;8.07;;;5.65;;
49412;SDS011;35493;50.276;9.372;2023-07-09T12:29:55;7.68;;;4.88;;
49412;SDS011;35493;50.276;9.372;2023-07-09T12:32:23;6.97;;;4.95;;
49412;SDS011;35493;50.276;9.372;2023-07-09T12:34:52;6.65;;;4.82;;
49412;SDS011;35493;50.276;9.372;2023-07-09T12:37:21;7.00;;;5.28;;
49412;SDS011;35493;50.276;9.372;2023-07-09T12:39:51;8.07;;;5.30;;
49412;SDS011;35493;50.276;9.372;2023-07-09T12:42:19;7.22;;;4.45;;
49412;SDS011;35493;50.276;9.372;2023-07-09T12:44:53;8.10;;;4.93;;
49412;SDS011;35493;50.276;9.372;2023-07-09T12:47:20;9.07;;;5.18;;
49412;SDS011;35493;50.276;9.372;2023-07-09T12:49:50;8.52;;;4.78;;
49412;SDS011;35493;50.276;9.372;2023-07-09T12:52:27;7.45;;;4.47;;
49412;SDS011;35493;50.276;9.372;2023-07-09T12:57:25;7.55;;;4.50;;
49412;SDS011;35493;50.276;9.372;2023-07-09T12:59:53;8.63;;;5.25;;
49412;SDS011;35493;50.276;9.372;2023-07-09T13:02:27;6.75;;;4.45;;
49412;SDS011;35493;50.276;9.372;2023-07-09T13:04:59;9.30;;;4.93;;
49412;SDS011;35493;50.276;9.372;2023-07-09T13:07:31;8.60;;;5.38;;
49412;SDS011;35493;50.276;9.372;2023-07-09T13:10:04;11.88;;;10.32;;
49412;SDS011;35493;50.276;9.372;2023-07-09T13:12:34;7.93;;;6.85;;
49412;SDS011;35493;50.276;9.372;2023-07-09T13:15:05;8.02;;;5.60;;
49412;SDS011;35493;50.276;9.372;2023-07-09T13:17:44;7.65;;;5.28;;
49412;SDS011;35493;50.276;9.372;2023-07-09T13:20:11;6.28;;;4.60;;
49412;SDS011;35493;50.276;9.372;2023-07-09T13:22:40;6.78;;;4.72;;
49412;SDS011;35493;50.276;9.372;2023-07-09T13:25:07;7.30;;;4.97;;
49412;SDS011;35493;50.276;9.372;2023-07-09T13:27:36;9.68;;;5.07;;
49412;SDS011;35493;50.276;9.372;2023-07-09T13:30:03;7.90;;;5.00;;
49412;SDS011;35493;50.276;9.372;2023-07-09T13:32:31;7.63;;;5.05;;
49412;SDS011;35493;50.276;9.372;2023-07-09T13:34:58;6.43;;;4.65;;
49412;SDS011;35493;50.276;9.372;2023-07-09T13:37:25;6.28;;;4.53;;
49412;SDS011;35493;50.276;9.372;2023-07-09T13:39:53;6.70;;;3.88;;
49412;SDS011;35493;50.276;9.372;2023-07-09T13:42:20;5.40;;;4.20;;
49412;SDS011;35493;50.276;9.372;2023-07-09T13:44:47;8.18;;;4.80;;
49412;SDS011;35493;50.276;9.372;2023-07-09T13:49:44;6.00;;;4.35;;
49412;SDS011;35493;50.276;9.372;2023-07-09T13:52:14;6.07;;;4.57;;
49412;SDS011;35493;50.276;9.372;2023-07-09T13:54:42;6.45;;;4.35;;
49412;SDS011;35493;50.276;9.372;2023-07-09T13:57:15;9.48;;;5.25;;
49412;SDS011;35493;50.276;9.372;2023-07-09T13:59:43;6.75;;;4.55;;
49412;SDS011;35493;50.276;9.372;2023-07-09T14:02:19;8.55;;;4.93;;
49412;SDS011;35493;50.276;9.372;2023-07-09T14:04:49;9.10;;;4.53;;
49412;SDS011;35493;50.276;9.372;2023-07-09T14:07:25;8.27;;;4.72;;
49412;SDS011;35493;50.276;9.372;2023-07-09T14:09:55;6.68;;;4.57;;
49412;SDS011;35493;50.276;9.372;2023-07-09T14:12:23;7.13;;;4.75;;
49412;SDS011;35493;50.276;9.372;2023-07-09T14:14:51;8.07;;;4.95;;
49412;SDS011;35493;50.276;9.372;2023-07-09T14:17:19;6.03;;;4.30;;
49412;SDS011;35493;50.276;9.372;2023-07-09T14:19:47;7.07;;;4.32;;
49412;SDS011;35493;50.276;9.372;2023-07-09T14:24:52;7.70;;;4.28;;
49412;SDS011;35493;50.276;9.372;2023-07-09T14:27:19;8.88;;;4.75;;
49412;SDS011;35493;50.276;9.372;2023-07-09T14:29:47;9.77;;;4.97;;
49412;SDS011;35493;50.276;9.372;2023-07-09T14:32:23;10.00;;;5.13;;
49412;SDS011;35493;50.276;9.372;2023-07-09T14:34:57;10.77;;;7.18;;
49412;SDS011;35493;50.276;9.372;2023-07-09T14:37:25;10.00;;;7.50;;
49412;SDS011;35493;50.276;9.372;2023-07-09T14:39:52;8.40;;;6.32;;
49412;SDS011;35493;50.276;9.372;2023-07-09T14:42:19;9.00;;;5.80;;
49412;SDS011;35493;50.276;9.372;2023-07-09T14:44:48;10.38;;;5.30;;
49412;SDS011;35493;50.276;9.372;2023-07-09T14:47:16;7.05;;;4.75;;
49412;SDS011;35493;50.276;9.372;2023-07-09T14:49:44;6.68;;;4.80;;
49412;SDS011;35493;50.276;9.372;2023-07-09T14:52:12;9.65;;;6.70;;
49412;SDS011;35493;50.276;9.372;2023-07-09T14:54:43;10.38;;;6.07;;
49412;SDS011;35493;50.276;9.372;2023-07-09T14:57:16;9.65;;;6.07;;
49412;SDS011;35493;50.276;9.372;2023-07-09T15:00:02;8.00;;;5.70;;
49412;SDS011;35493;50.276;9.372;2023-07-09T15:05:00;6.97;;;4.70;;
49412;SDS011;35493;50.276;9.372;2023-07-09T15:07:27;7.63;;;4.85;;
49412;SDS011;35493;50.276;9.372;2023-07-09T15:09:55;8.35;;;4.80;;
49412;SDS011;35493;50.276;9.372;2023-07-09T15:12:24;6.82;;;5.22;;
49412;SDS011;35493;50.276;9.372;2023-07-09T15:14:55;8.63;;;5.13;;
49412;SDS011;35493;50.276;9.372;2023-07-09T15:17:33;7.05;;;4.75;;
49412;SDS011;35493;50.276;9.372;2023-07-09T15:20:00;8.18;;;5.00;;
49412;SDS011;35493;50.276;9.372;2023-07-09T15:22:28;8.85;;;5.25;;
49412;SDS011;35493;50.276;9.372;2023-07-09T15:24:58;7.45;;;5.50;;
49412;SDS011;35493;50.276;9.372;2023-07-09T15:27:25;8.75;;;5.45;;
49412;SDS011;35493;50.276;9.372;2023-07-09T15:29:52;7.35;;;5.18;;
49412;SDS011;35493;50.276;9.372;2023-07-09T15:32:19;7.10;;;4.82;;